Time;durP1;ratioP1;P1;durP2;ratioP2;P2;SDS_P1;SDS_P2;PMS_P1;PMS_P2;Temp;Humidity;BMP_temperature;BMP_pressure;BME280_temperature;BME280_humidity;BME280_pressure;Samples;Min_cycle;Max_cycle;Signal;HPM_P1;HPM_P2
2023/12/28 00:02:21;;;;;;;21.50;8.93;;;5.70;99.90;;;;;;5067232;28;20270;-65
2023/12/28 00:04:48;;;;;;;20.60;8.20;;;5.60;99.90;;;;;;5065762;28;20207;-65
2023/12/28 00:07:15;;;;;;;21.57;8.00;;;5.60;99.90;;;;;;5069037;28;20199;-65
2023/12/28 00:09:42;;;;;;;15.27;6.50;;;5.50;99.90;;;;;;5069252;28;20211;-65
2023/12/28 00:12:09;;;;;;;16.57;6.73;;;5.50;99.90;;;;;;5068978;28;20335;-65
2023/12/28 00:14:36;;;;;;;10.70;5.60;;;5.50;99.90;;;;;;5068399;28;20238;-65
2023/12/28 00:17:04;;;;;;;20.43;7.27;;;5.50;99.90;;;;;;5053825;28;20191;-65
2023/12/28 00:19:32;;;;;;;23.17;9.63;;;5.50;99.90;;;;;;5069251;28;20203;-65
2023/12/28 00:21:59;;;;;;;17.30;8.33;;;5.50;99.90;;;;;;5068100;28;20191;-65
2023/12/28 00:24:26;;;;;;;20.73;8.73;;;5.50;99.90;;;;;;5069168;28;20284;-65
2023/12/28 00:26:53;;;;;;;20.50;8.33;;;5.50;99.90;;;;;;5068799;28;20540;-65
2023/12/28 00:29:20;;;;;;;20.63;8.40;;;5.40;99.90;;;;;;5068699;28;20571;-65
2023/12/28 00:31:47;;;;;;;22.00;8.40;;;5.40;99.90;;;;;;5067008;28;20565;-65
2023/12/28 00:34:14;;;;;;;21.00;7.97;;;5.30;99.90;;;;;;5068743;28;20226;-65
2023/12/28 00:36:43;;;;;;;22.87;8.23;;;5.30;99.90;;;;;;5067952;28;20226;-67
2023/12/28 00:39:10;;;;;;;18.50;7.30;;;5.30;99.90;;;;;;5075303;28;20760;-65
2023/12/28 00:41:37;;;;;;;20.13;7.70;;;5.20;99.90;;;;;;5066711;28;20233;-64
2023/12/28 00:44:05;;;;;;;20.83;7.80;;;5.20;99.90;;;;;;5067226;28;20249;-64
2023/12/28 00:46:32;;;;;;;16.83;7.20;;;5.20;99.90;;;;;;5066663;28;20660;-65
2023/12/28 00:48:59;;;;;;;21.10;8.03;;;5.10;99.90;;;;;;5067599;28;20199;-65
2023/12/28 00:51:26;;;;;;;18.33;7.43;;;5.10;99.90;;;;;;5068221;28;20283;-65
2023/12/28 00:53:54;;;;;;;24.00;7.50;;;5.10;99.90;;;;;;5067653;28;20210;-64
2023/12/28 00:56:21;;;;;;;22.40;7.73;;;5.10;99.90;;;;;;5064783;28;20241;-65
2023/12/28 00:58:48;;;;;;;19.60;7.37;;;5.00;99.90;;;;;;5068840;28;20279;-65
2023/12/28 01:01:15;;;;;;;25.40;8.00;;;5.00;99.90;;;;;;5060341;28;20191;-65
2023/12/28 01:03:42;;;;;;;18.90;7.77;;;5.00;99.90;;;;;;5068705;28;20384;-65
2023/12/28 01:06:10;;;;;;;19.10;7.77;;;5.00;99.90;;;;;;5098165;28;20350;-65
2023/12/28 01:08:37;;;;;;;20.90;7.63;;;5.00;99.90;;;;;;5068841;28;20274;-64
2023/12/28 01:11:05;;;;;;;17.23;7.83;;;5.00;99.90;;;;;;5071368;28;20249;-65
2023/12/28 01:13:32;;;;;;;21.67;7.03;;;5.00;99.90;;;;;;5062486;28;20803;-64
2023/12/28 01:15:59;;;;;;;23.10;7.80;;;4.90;99.90;;;;;;5069610;28;20206;-64
2023/12/28 01:18:26;;;;;;;21.70;8.27;;;4.90;99.90;;;;;;5071506;28;20669;-66
2023/12/28 01:20:53;;;;;;;20.27;8.13;;;4.90;99.90;;;;;;5071609;28;20791;-65
2023/12/28 01:23:20;;;;;;;16.50;7.67;;;4.90;99.90;;;;;;5072474;28;20194;-65
2023/12/28 01:25:47;;;;;;;21.57;8.13;;;4.90;99.90;;;;;;5065609;28;20670;-65
2023/12/28 01:28:16;;;;;;;23.73;7.63;;;4.80;99.90;;;;;;5071928;28;20193;-64
2023/12/28 01:30:43;;;;;;;21.13;8.63;;;4.80;99.90;;;;;;5071143;28;20201;-65
2023/12/28 01:33:10;;;;;;;20.33;8.07;;;4.70;99.90;;;;;;5071579;28;20194;-66
2023/12/28 01:35:37;;;;;;;24.53;8.57;;;4.70;99.90;;;;;;5068650;28;20239;-66
2023/12/28 01:38:05;;;;;;;18.30;8.60;;;4.70;99.90;;;;;;5071917;28;20197;-65
2023/12/28 01:40:32;;;;;;;19.43;8.43;;;4.70;99.90;;;;;;5072004;28;20756;-65
2023/12/28 01:42:59;;;;;;;23.47;9.43;;;4.70;99.90;;;;;;5070534;28;20199;-64
2023/12/28 01:45:27;;;;;;;23.30;8.67;;;4.60;99.90;;;;;;5070918;28;20205;-63
2023/12/28 01:47:56;;;;;;;23.40;8.50;;;4.60;99.90;;;;;;5071182;28;20196;-64
2023/12/28 01:50:25;;;;;;;24.43;9.83;;;4.60;99.90;;;;;;5070593;28;20198;-64
2023/12/28 01:52:53;;;;;;;21.10;8.50;;;4.60;99.90;;;;;;5071207;28;20237;-66
2023/12/28 01:55:21;;;;;;;20.43;8.60;;;4.60;99.90;;;;;;5069238;28;20250;-65
2023/12/28 01:57:49;;;;;;;21.30;8.03;;;4.60;99.90;;;;;;5064048;28;20612;-65
2023/12/28 02:00:16;;;;;;;20.67;7.10;;;4.50;99.90;;;;;;5071327;28;20640;-65
2023/12/28 02:02:45;;;;;;;25.03;9.93;;;4.60;99.90;;;;;;5069381;28;20208;-64
2023/12/28 02:05:13;;;;;;;18.70;9.00;;;4.60;99.90;;;;;;5069948;28;20752;-66
2023/12/28 02:07:40;;;;;;;21.63;8.67;;;4.60;99.90;;;;;;5068603;28;20195;-64
2023/12/28 02:10:08;;;;;;;24.00;9.87;;;4.60;99.90;;;;;;5069966;28;20511;-65
2023/12/28 02:12:35;;;;;;;24.50;10.23;;;4.60;99.90;;;;;;5071168;28;20241;-66
2023/12/28 02:15:02;;;;;;;22.30;9.50;;;4.60;99.90;;;;;;5071137;28;20201;-64
2023/12/28 02:17:34;;;;;;;27.07;9.90;;;4.70;99.90;;;;;;5066600;28;20264;-64
2023/12/28 02:20:05;;;;;;;25.17;9.93;;;4.60;99.90;;;;;;5069119;28;20284;-64
2023/12/28 02:22:33;;;;;;;30.00;10.90;;;4.60;99.90;;;;;;5069393;28;20197;-64
2023/12/28 02:25:07;;;;;;;27.27;11.10;;;4.60;99.90;;;;;;5104192;28;20200;-65
2023/12/28 02:27:37;;;;;;;29.87;11.13;;;4.70;99.90;;;;;;5071547;28;20193;-65
2023/12/28 02:30:06;;;;;;;25.57;9.10;;;4.70;99.90;;;;;;5070947;28;20565;-65
2023/12/28 02:32:41;;;;;;;31.83;10.37;;;4.60;99.90;;;;;;5069995;28;20572;-65
2023/12/28 02:35:17;;;;;;;27.77;9.83;;;4.60;99.90;;;;;;5103369;28;20205;-64
2023/12/28 02:37:48;;;;;;;26.30;9.50;;;4.60;99.90;;;;;;5071229;28;20509;-64
2023/12/28 02:40:18;;;;;;;22.30;9.00;;;4.50;99.90;;;;;;5071591;28;20189;-64
2023/12/28 02:42:45;;;;;;;22.87;9.17;;;4.60;99.90;;;;;;5069954;28;20614;-65
2023/12/28 02:45:14;;;;;;;27.27;9.67;;;4.50;99.90;;;;;;5068665;28;20202;-64
2023/12/28 02:47:41;;;;;;;31.20;10.30;;;4.60;99.90;;;;;;5069736;28;20197;-65
2023/12/28 02:50:09;;;;;;;24.90;8.57;;;4.50;99.90;;;;;;5097822;28;20735;-65
2023/12/28 02:52:36;;;;;;;29.67;9.20;;;4.50;99.90;;;;;;5065529;28;20250;-66
2023/12/28 02:55:03;;;;;;;25.23;8.73;;;4.50;99.90;;;;;;5069157;28;20305;-65
2023/12/28 02:57:31;;;;;;;26.57;9.60;;;4.50;99.90;;;;;;5070368;28;20197;-65
2023/12/28 03:00:01;;;;;;;24.40;8.77;;;4.50;99.90;;;;;;5067888;28;20185;-65
2023/12/28 03:02:29;;;;;;;18.00;7.60;;;4.50;99.90;;;;;;5067339;28;20205;-64
2023/12/28 03:04:56;;;;;;;26.17;8.60;;;4.50;99.90;;;;;;5069803;28;20192;-64
2023/12/28 03:07:23;;;;;;;26.83;9.23;;;4.50;99.90;;;;;;5070321;28;20197;-64
2023/12/28 03:09:50;;;;;;;17.63;8.47;;;4.60;99.90;;;;;;5069201;28;20267;-64
2023/12/28 03:12:17;;;;;;;20.77;7.73;;;4.60;99.90;;;;;;5067292;28;20291;-65
2023/12/28 03:14:45;;;;;;;20.27;7.60;;;4.60;99.90;;;;;;5067927;28;20313;-65
2023/12/28 03:17:13;;;;;;;18.87;7.83;;;4.60;99.90;;;;;;5068866;28;20243;-66
2023/12/28 03:19:40;;;;;;;21.90;7.57;;;4.70;99.90;;;;;;5069952;28;20298;-65
2023/12/28 03:22:07;;;;;;;17.77;7.00;;;4.70;99.90;;;;;;5069477;28;20254;-66
2023/12/28 03:24:34;;;;;;;16.13;6.57;;;4.70;99.90;;;;;;5101866;28;20227;-64
2023/12/28 03:27:01;;;;;;;15.70;6.90;;;4.70;99.90;;;;;;5069859;28;20202;-64
2023/12/28 03:29:29;;;;;;;15.37;6.90;;;4.70;99.90;;;;;;5068779;28;20270;-64
2023/12/28 03:31:58;;;;;;;18.10;6.13;;;4.80;99.90;;;;;;5067174;28;20282;-66
2023/12/28 03:34:29;;;;;;;18.53;7.30;;;4.80;99.90;;;;;;5067514;28;20197;-66
2023/12/28 03:36:56;;;;;;;18.80;7.33;;;4.80;99.90;;;;;;5069566;28;20198;-65
2023/12/28 03:39:24;;;;;;;15.93;7.47;;;4.70;99.90;;;;;;5068495;28;20669;-65
2023/12/28 03:41:52;;;;;;;13.40;6.20;;;4.70;99.90;;;;;;5068183;28;20203;-65
2023/12/28 03:44:20;;;;;;;18.97;6.80;;;4.70;99.90;;;;;;5069531;28;20208;-65
2023/12/28 03:46:48;;;;;;;18.10;6.73;;;4.70;99.90;;;;;;5065397;28;20237;-65
2023/12/28 03:49:18;;;;;;;19.67;7.17;;;4.70;99.90;;;;;;5067783;28;20202;-64
2023/12/28 03:51:45;;;;;;;18.07;7.07;;;4.70;99.90;;;;;;5068816;28;20197;-64
2023/12/28 03:54:12;;;;;;;16.53;6.27;;;4.80;99.90;;;;;;5068088;28;20657;-63
2023/12/28 03:56:43;;;;;;;16.33;6.70;;;4.70;99.90;;;;;;5069222;28;20205;-65
2023/12/28 03:59:10;;;;;;;17.43;7.13;;;4.70;99.90;;;;;;5069146;28;20255;-64
2023/12/28 04:01:37;;;;;;;16.73;6.80;;;4.70;99.90;;;;;;5068107;28;20534;-64
2023/12/28 04:04:06;;;;;;;14.20;6.93;;;4.70;99.90;;;;;;5066241;28;20205;-65
2023/12/28 04:06:34;;;;;;;18.87;7.40;;;4.70;99.90;;;;;;5068980;28;20193;-65
2023/12/28 04:09:01;;;;;;;23.30;8.27;;;4.70;99.90;;;;;;5069007;28;20189;-65
2023/12/28 04:11:28;;;;;;;21.43;8.47;;;4.60;99.90;;;;;;5068753;28;20235;-64
2023/12/28 04:13:55;;;;;;;20.13;7.87;;;4.60;99.90;;;;;;5068396;28;20723;-65
2023/12/28 04:16:22;;;;;;;18.20;8.10;;;4.60;99.90;;;;;;5066188;28;20568;-64
2023/12/28 04:18:49;;;;;;;22.97;8.53;;;4.50;99.90;;;;;;5067795;28;20627;-65
2023/12/28 04:21:17;;;;;;;20.20;7.20;;;4.50;99.90;;;;;;5066663;28;20205;-66
2023/12/28 04:23:45;;;;;;;14.43;6.33;;;4.50;99.90;;;;;;5067407;28;20644;-66
2023/12/28 04:26:12;;;;;;;21.10;8.13;;;4.40;99.90;;;;;;5067784;28;20205;-65
2023/12/28 04:28:40;;;;;;;19.37;7.63;;;4.40;99.90;;;;;;5068639;28;20208;-65
2023/12/28 04:31:08;;;;;;;21.87;8.47;;;4.40;99.90;;;;;;5068072;28;20205;-64
2023/12/28 04:33:35;;;;;;;24.30;9.57;;;4.50;99.90;;;;;;5066603;28;20228;-65
2023/12/28 04:36:05;;;;;;;16.43;7.67;;;4.40;99.90;;;;;;5066944;28;20202;-64
2023/12/28 04:38:32;;;;;;;19.60;8.00;;;4.40;99.90;;;;;;5067194;28;20215;-64
2023/12/28 04:41:02;;;;;;;20.57;8.73;;;4.40;99.90;;;;;;5067363;28;20709;-65
2023/12/28 04:43:29;;;;;;;15.83;8.57;;;4.40;99.90;;;;;;5067763;28;20590;-65
2023/12/28 04:45:56;;;;;;;21.87;8.87;;;4.40;99.90;;;;;;5071549;28;20648;-65
2023/12/28 04:48:25;;;;;;;28.07;9.43;;;4.40;99.90;;;;;;5068543;28;20225;-65
2023/12/28 04:50:52;;;;;;;24.93;9.47;;;4.40;99.90;;;;;;5073528;28;20214;-65
2023/12/28 04:53:19;;;;;;;25.33;9.57;;;4.30;99.90;;;;;;5067515;28;20249;-64
2023/12/28 04:55:46;;;;;;;22.73;8.87;;;4.30;99.90;;;;;;5072805;28;20189;-64
2023/12/28 04:58:15;;;;;;;21.80;9.73;;;4.30;99.90;;;;;;5070672;28;20319;-64
2023/12/28 05:00:42;;;;;;;19.93;8.90;;;4.30;99.90;;;;;;5070961;28;20212;-65
2023/12/28 05:03:09;;;;;;;23.00;9.20;;;4.30;99.90;;;;;;5068832;28;20782;-65
2023/12/28 05:05:36;;;;;;;23.30;9.10;;;4.30;99.90;;;;;;5070863;28;20541;-65
2023/12/28 05:08:04;;;;;;;24.30;9.17;;;4.30;99.90;;;;;;5072109;28;20189;-65
2023/12/28 05:10:31;;;;;;;23.50;9.67;;;4.30;99.90;;;;;;5071693;28;20636;-65
2023/12/28 05:12:58;;;;;;;20.37;8.33;;;4.30;99.90;;;;;;5070853;28;20274;-65
2023/12/28 05:15:27;;;;;;;23.03;8.43;;;4.20;99.90;;;;;;5071674;28;20233;-65
2023/12/28 05:17:53;;;;;;;24.47;9.13;;;4.20;99.90;;;;;;5072035;28;20264;-64
2023/12/28 05:20:20;;;;;;;19.37;7.80;;;4.20;99.90;;;;;;5071921;28;20296;-64
2023/12/28 05:22:48;;;;;;;19.67;8.43;;;4.10;99.90;;;;;;5072337;28;20213;-64
2023/12/28 05:25:15;;;;;;;20.10;8.37;;;4.10;99.90;;;;;;5072476;28;20247;-65
2023/12/28 05:27:42;;;;;;;21.37;9.10;;;4.10;99.90;;;;;;5070155;28;20201;-65
2023/12/28 05:30:12;;;;;;;17.47;8.33;;;4.10;99.90;;;;;;5071756;28;20201;-64
2023/12/28 05:32:41;;;;;;;23.17;9.17;;;4.10;99.90;;;;;;5071428;28;20578;-65
2023/12/28 05:35:08;;;;;;;16.37;7.67;;;4.10;99.90;;;;;;5071765;28;20246;-65
2023/12/28 05:37:35;;;;;;;20.73;8.03;;;4.10;99.90;;;;;;5072427;28;20205;-65
2023/12/28 05:40:02;;;;;;;19.30;7.43;;;4.10;99.90;;;;;;5072409;28;20198;-65
2023/12/28 05:42:29;;;;;;;13.97;6.97;;;4.10;99.90;;;;;;5072271;28;20200;-64
2023/12/28 05:44:56;;;;;;;19.53;8.60;;;4.10;99.90;;;;;;5071483;28;20637;-65
2023/12/28 05:47:24;;;;;;;15.27;7.40;;;4.10;99.90;;;;;;5065706;28;20570;-65
2023/12/28 05:49:52;;;;;;;15.13;6.83;;;4.20;99.90;;;;;;5064198;28;20198;-63
2023/12/28 05:52:19;;;;;;;17.47;7.53;;;4.20;99.90;;;;;;5071666;28;20285;-65
2023/12/28 05:54:47;;;;;;;12.93;6.63;;;4.20;99.90;;;;;;5067435;28;20271;-65
2023/12/28 05:57:14;;;;;;;18.03;7.27;;;4.30;99.90;;;;;;5069807;28;20209;-65
2023/12/28 05:59:41;;;;;;;20.63;8.37;;;4.30;99.90;;;;;;5071129;28;20587;-64
2023/12/28 06:02:12;;;;;;;19.73;7.63;;;4.40;99.90;;;;;;5070390;28;20195;-64
2023/12/28 06:04:39;;;;;;;19.30;7.77;;;4.40;99.90;;;;;;5071321;28;20189;-65
2023/12/28 06:07:07;;;;;;;16.90;6.57;;;4.50;99.90;;;;;;5071502;28;20202;-65
2023/12/28 06:09:34;;;;;;;18.00;6.83;;;4.50;99.90;;;;;;5071962;28;20202;-65
2023/12/28 06:12:01;;;;;;;13.43;5.63;;;4.60;99.90;;;;;;5069144;28;20721;-65
2023/12/28 06:14:29;;;;;;;14.47;5.60;;;4.60;99.90;;;;;;5070888;28;20237;-64
2023/12/28 06:16:57;;;;;;;15.73;6.20;;;4.60;99.90;;;;;;5069753;28;20193;-64
2023/12/28 06:19:24;;;;;;;15.70;6.73;;;4.70;99.90;;;;;;5068499;28;20202;-65
2023/12/28 06:21:51;;;;;;;11.53;5.90;;;4.70;99.90;;;;;;5102589;28;20230;-64
2023/12/28 06:24:19;;;;;;;16.33;6.47;;;4.70;99.90;;;;;;5071004;28;20276;-64
2023/12/28 06:26:46;;;;;;;13.87;6.33;;;4.80;99.90;;;;;;5071155;28;20637;-65
2023/12/28 06:29:13;;;;;;;12.70;6.07;;;4.80;99.90;;;;;;5070991;28;20248;-66
2023/12/28 06:31:40;;;;;;;15.83;6.73;;;4.90;99.90;;;;;;5068536;28;20698;-66
2023/12/28 06:34:07;;;;;;;17.33;6.87;;;4.90;99.90;;;;;;5070765;28;20220;-65
2023/12/28 06:36:35;;;;;;;12.77;5.57;;;4.90;99.90;;;;;;5070762;28;20688;-64
2023/12/28 06:39:02;;;;;;;12.37;6.40;;;4.90;99.90;;;;;;5070954;28;20219;-66
2023/12/28 06:41:30;;;;;;;13.93;5.90;;;4.90;99.90;;;;;;5070589;28;20628;-64
2023/12/28 06:43:57;;;;;;;17.13;7.43;;;4.90;99.90;;;;;;5070616;28;20241;-65
2023/12/28 06:46:24;;;;;;;15.77;6.97;;;5.00;99.90;;;;;;5067235;28;20209;-65
2023/12/28 06:48:51;;;;;;;20.17;8.23;;;5.00;99.90;;;;;;5069325;28;20193;-65
2023/12/28 06:51:19;;;;;;;25.10;8.60;;;5.00;99.90;;;;;;5076859;28;20198;-64
2023/12/28 06:53:46;;;;;;;18.47;8.07;;;5.00;99.90;;;;;;5070301;28;20222;-65
2023/12/28 06:56:13;;;;;;;16.47;7.00;;;5.00;99.90;;;;;;5070024;28;20699;-65
2023/12/28 06:58:43;;;;;;;15.20;7.37;;;5.70;99.90;;;;;;5070409;28;20203;-66
2023/12/28 07:01:10;;;;;;;14.07;6.30;;;4.90;99.90;;;;;;5101673;28;20572;-66
2023/12/28 07:03:38;;;;;;;15.30;7.57;;;4.90;99.90;;;;;;5068342;28;20194;-65
2023/12/28 07:06:05;;;;;;;20.20;8.00;;;5.00;99.90;;;;;;5063171;28;20230;-65
2023/12/28 07:08:35;;;;;;;17.53;8.70;;;5.00;99.90;;;;;;5070529;28;20206;-66
2023/12/28 07:11:03;;;;;;;17.27;7.70;;;5.00;99.90;;;;;;5069198;28;20230;-66
2023/12/28 07:13:30;;;;;;;23.30;8.70;;;5.10;99.90;;;;;;5069845;28;20576;-66
2023/12/28 07:15:59;;;;;;;18.33;7.73;;;5.10;99.90;;;;;;5068917;28;20252;-65
2023/12/28 07:18:26;;;;;;;14.60;7.57;;;5.10;99.90;;;;;;5069527;28;20531;-64
2023/12/28 07:20:53;;;;;;;20.50;8.60;;;5.10;99.90;;;;;;5068959;28;20207;-65
2023/12/28 07:23:20;;;;;;;18.87;8.50;;;5.10;99.90;;;;;;5069758;28;20278;-65
2023/12/28 07:25:47;;;;;;;18.30;8.00;;;5.20;99.90;;;;;;5068296;28;20209;-65
2023/12/28 07:28:14;;;;;;;20.73;8.97;;;6.00;99.90;;;;;;5069827;28;20247;-64
2023/12/28 07:30:41;;;;;;;19.60;8.23;;;5.20;99.90;;;;;;5069058;28;20202;-65
2023/12/28 07:33:10;;;;;;;20.90;8.80;;;5.30;99.90;;;;;;5069102;28;20305;-66
2023/12/28 07:35:37;;;;;;;17.57;7.90;;;5.20;99.90;;;;;;5065404;28;20279;-66
2023/12/28 07:38:04;;;;;;;18.47;7.73;;;5.30;99.90;;;;;;5068262;28;20681;-65
2023/12/28 07:40:31;;;;;;;16.53;7.70;;;5.30;99.90;;;;;;5069863;28;20195;-65
2023/12/28 07:42:58;;;;;;;18.23;7.60;;;5.40;99.90;;;;;;5067945;28;20198;-65
2023/12/28 07:45:25;;;;;;;17.17;7.93;;;5.40;99.90;;;;;;5067875;28;20674;-65
2023/12/28 07:47:55;;;;;;;19.40;8.33;;;5.50;99.90;;;;;;5068569;28;20602;-65
2023/12/28 07:50:23;;;;;;;17.47;7.53;;;5.50;99.90;;;;;;5073910;28;20205;-66
2023/12/28 07:52:50;;;;;;;14.33;7.07;;;5.50;99.90;;;;;;5075109;28;20537;-64
2023/12/28 07:55:17;;;;;;;19.10;7.93;;;5.60;99.90;;;;;;5066959;28;20204;-65
2023/12/28 07:57:45;;;;;;;18.13;8.13;;;5.60;99.90;;;;;;5068216;28;20312;-65
2023/12/28 08:00:12;;;;;;;24.67;8.87;;;5.70;99.90;;;;;;5067188;28;20229;-64
2023/12/28 08:02:39;;;;;;;21.53;8.50;;;5.70;99.90;;;;;;5062037;28;20316;-65
2023/12/28 08:05:08;;;;;;;18.40;8.87;;;5.70;99.90;;;;;;5069389;28;20537;-65
2023/12/28 08:07:37;;;;;;;19.50;8.00;;;5.70;99.90;;;;;;5067714;28;20552;-66
2023/12/28 08:10:05;;;;;;;23.80;10.03;;;5.70;99.90;;;;;;5068045;28;20223;-65
2023/12/28 08:12:32;;;;;;;22.77;9.80;;;5.80;99.90;;;;;;5068803;28;20691;-65
2023/12/28 08:15:00;;;;;;;15.57;8.10;;;5.80;99.90;;;;;;5068098;28;20301;-65
2023/12/28 08:17:27;;;;;;;14.27;8.60;;;5.80;99.90;;;;;;5066030;28;20253;-65
2023/12/28 08:19:55;;;;;;;17.20;8.63;;;5.90;99.90;;;;;;5062546;28;20223;-65
2023/12/28 08:22:22;;;;;;;15.67;7.43;;;5.90;99.90;;;;;;5068551;28;20203;-65
2023/12/28 08:24:51;;;;;;;12.57;6.27;;;5.90;99.90;;;;;;5067472;28;20199;-64
2023/12/28 08:27:18;;;;;;;20.27;7.03;;;6.00;99.90;;;;;;5068958;28;20570;-65
2023/12/28 08:29:45;;;;;;;16.33;7.57;;;6.00;99.90;;;;;;5068495;28;20283;-64
2023/12/28 08:32:12;;;;;;;11.73;6.17;;;6.10;99.90;;;;;;5067459;28;20197;-64
2023/12/28 08:34:39;;;;;;;14.87;7.40;;;6.10;99.90;;;;;;5067122;28;20281;-65
2023/12/28 08:37:06;;;;;;;19.70;7.50;;;6.10;99.90;;;;;;5068220;28;20255;-64
2023/12/28 08:39:33;;;;;;;18.30;7.80;;;6.20;99.90;;;;;;5059038;28;20993;-64
2023/12/28 08:42:02;;;;;;;15.23;6.97;;;6.20;99.90;;;;;;5066596;28;20207;-65
2023/12/28 08:44:29;;;;;;;11.23;5.63;;;6.30;99.90;;;;;;5067668;28;20258;-64
2023/12/28 08:46:56;;;;;;;9.20;5.00;;;6.30;99.90;;;;;;5066033;28;20200;-65
2023/12/28 08:49:23;;;;;;;11.27;5.10;;;6.40;99.90;;;;;;5060648;28;20233;-65
2023/12/28 08:51:50;;;;;;;10.60;5.37;;;6.40;99.90;;;;;;5066715;28;20567;-65
2023/12/28 08:54:17;;;;;;;11.13;5.70;;;6.50;99.90;;;;;;5067985;28;20297;-65
2023/12/28 08:56:44;;;;;;;14.37;7.13;;;6.60;99.90;;;;;;5065947;28;20291;-64
2023/12/28 08:59:13;;;;;;;16.23;6.47;;;6.60;99.90;;;;;;5066441;28;20211;-64
2023/12/28 09:01:40;;;;;;;11.63;6.17;;;6.60;99.90;;;;;;5066575;28;20300;-65
2023/12/28 09:04:08;;;;;;;9.30;5.07;;;6.70;99.90;;;;;;5065961;28;20207;-65
2023/12/28 09:06:35;;;;;;;8.57;5.20;;;6.70;99.90;;;;;;5065615;28;20212;-64
2023/12/28 09:09:03;;;;;;;9.10;4.90;;;6.70;99.90;;;;;;5065490;28;20254;-65
2023/12/28 09:11:30;;;;;;;9.80;4.70;;;6.70;99.90;;;;;;5067264;28;20229;-65
2023/12/28 09:13:58;;;;;;;8.73;4.80;;;6.80;99.90;;;;;;5066856;28;20693;-65
2023/12/28 09:16:28;;;;;;;8.70;4.80;;;6.80;99.90;;;;;;5065835;28;20673;-65
2023/12/28 09:18:55;;;;;;;13.57;6.00;;;6.80;99.90;;;;;;5066583;28;20703;-65
2023/12/28 09:21:22;;;;;;;11.73;6.73;;;6.80;99.90;;;;;;5066734;28;20217;-65
2023/12/28 09:23:49;;;;;;;12.17;6.23;;;6.80;99.90;;;;;;5067432;28;20186;-66
2023/12/28 09:26:16;;;;;;;14.90;7.00;;;6.90;99.90;;;;;;5065750;28;20541;-64
2023/12/28 09:28:44;;;;;;;14.50;6.90;;;6.90;99.90;;;;;;5066022;28;20247;-65
2023/12/28 09:31:12;;;;;;;13.47;6.97;;;6.90;99.90;;;;;;5066939;28;20216;-65
2023/12/28 09:33:40;;;;;;;13.50;7.77;;;6.90;99.90;;;;;;5070734;28;20207;-65
2023/12/28 09:36:08;;;;;;;12.53;6.53;;;7.00;99.90;;;;;;5070994;28;20247;-65
2023/12/28 09:38:35;;;;;;;11.17;6.10;;;7.00;99.90;;;;;;5052502;28;20201;-65
2023/12/28 09:41:22;;;;;;;;;;;;;;;;;;;;;
2023/12/28 09:43:55;;;;;;;13.40;6.10;;;7.10;99.90;;;;;;5061893;28;20646;-65
2023/12/28 09:46:22;;;;;;;12.33;6.67;;;7.10;99.90;;;;;;5069588;28;20221;-65
2023/12/28 09:48:53;;;;;;;13.17;6.33;;;7.10;99.90;;;;;;5070122;28;20197;-65
2023/12/28 09:51:21;;;;;;;18.07;8.77;;;7.20;99.90;;;;;;5063352;28;20545;-65
2023/12/28 09:53:48;;;;;;;16.53;7.90;;;7.20;99.90;;;;;;5064600;28;20209;-66
2023/12/28 09:56:15;;;;;;;17.53;8.63;;;7.20;99.90;;;;;;5059078;28;20572;-66
2023/12/28 09:58:43;;;;;;;18.67;8.70;;;7.20;99.90;;;;;;5069314;28;20283;-65
2023/12/28 10:01:11;;;;;;;19.77;8.70;;;7.20;99.90;;;;;;5070369;28;20527;-66
2023/12/28 10:03:38;;;;;;;22.63;9.17;;;7.20;99.90;;;;;;5070031;28;20284;-65
2023/12/28 10:06:07;;;;;;;20.00;8.40;;;7.30;99.90;;;;;;5058570;28;20199;-66
2023/12/28 10:08:34;;;;;;;15.10;8.17;;;7.20;99.90;;;;;;5068799;28;20572;-66
2023/12/28 10:11:02;;;;;;;17.83;8.40;;;7.20;99.90;;;;;;5068982;28;20225;-65
2023/12/28 10:13:30;;;;;;;16.97;7.83;;;7.20;99.90;;;;;;5070318;28;20193;-64
2023/12/28 10:15:58;;;;;;;17.23;8.57;;;7.30;99.90;;;;;;5069700;28;20254;-66
2023/12/28 10:18:25;;;;;;;22.43;8.53;;;7.30;99.90;;;;;;5069507;28;20210;-65
2023/12/28 10:20:53;;;;;;;14.97;8.23;;;7.40;99.90;;;;;;5068475;28;20229;-65
2023/12/28 10:23:22;;;;;;;13.73;6.73;;;7.40;99.90;;;;;;5068350;28;20196;-65
2023/12/28 10:25:53;;;;;;;18.03;7.93;;;7.40;99.90;;;;;;5066667;28;20303;-66
2023/12/28 10:28:20;;;;;;;20.70;8.00;;;7.50;99.90;;;;;;5067621;28;20197;-65
2023/12/28 10:30:48;;;;;;;16.03;7.80;;;7.50;99.90;;;;;;5068216;28;20199;-65
2023/12/28 10:33:15;;;;;;;9.63;6.10;;;7.50;99.90;;;;;;5068731;28;20201;-65
2023/12/28 10:35:44;;;;;;;16.10;7.70;;;7.60;99.90;;;;;;5069449;28;20228;-64
2023/12/28 10:38:14;;;;;;;12.97;7.20;;;7.60;99.90;;;;;;5064204;28;20198;-65
2023/12/28 10:40:43;;;;;;;15.73;7.50;;;7.60;99.90;;;;;;5066331;28;20231;-65
2023/12/28 10:43:15;;;;;;;14.33;7.37;;;7.60;99.90;;;;;;5067502;28;20231;-64
2023/12/28 10:45:43;;;;;;;12.73;6.97;;;7.60;99.90;;;;;;5094382;28;20225;-65
2023/12/28 10:48:11;;;;;;;15.93;8.80;;;7.60;99.90;;;;;;5066213;28;20243;-65
2023/12/28 10:50:40;;;;;;;14.07;7.40;;;7.70;99.90;;;;;;5065254;28;20197;-65
2023/12/28 10:53:27;;;;;;;15.17;7.17;;;7.70;99.90;;;;;;5062208;28;20300;-64
2023/12/28 10:56:14;;;;;;;14.10;7.30;;;7.70;99.90;;;;;;5075145;28;20221;-64
2023/12/28 10:58:51;;;;;;;19.63;8.40;;;7.70;99.90;;;;;;5065018;28;20193;-65
2023/12/28 11:01:24;;;;;;;20.87;9.27;;;7.70;99.90;;;;;;5059950;28;20296;-65
2023/12/28 11:04:09;;;;;;;21.63;8.83;;;7.70;99.90;;;;;;5067713;28;20236;-65
2023/12/28 11:06:37;;;;;;;22.40;9.10;;;7.80;99.90;;;;;;5067413;28;20208;-66
2023/12/28 11:09:07;;;;;;;15.73;7.43;;;7.80;99.90;;;;;;5064738;28;20196;-66
2023/12/28 11:11:37;;;;;;;14.93;7.10;;;7.80;99.90;;;;;;5068841;28;20237;-65
2023/12/28 11:14:05;;;;;;;11.33;5.97;;;7.70;99.90;;;;;;5066982;28;20204;-65
2023/12/28 11:16:34;;;;;;;10.53;5.63;;;7.70;99.90;;;;;;5066847;28;20197;-64
2023/12/28 11:19:02;;;;;;;11.57;6.63;;;7.70;99.90;;;;;;5065314;28;20216;-66
2023/12/28 11:21:29;;;;;;;12.47;6.20;;;7.70;99.90;;;;;;5067496;28;20201;-65
2023/12/28 11:23:57;;;;;;;8.33;5.67;;;7.60;99.90;;;;;;5063603;28;20254;-66
2023/12/28 11:26:24;;;;;;;11.30;6.43;;;7.60;99.90;;;;;;5068043;28;20202;-66
2023/12/28 11:29:06;;;;;;;10.33;5.67;;;7.60;99.90;;;;;;5068224;28;20198;-65
2023/12/28 11:31:35;;;;;;;9.90;5.73;;;7.60;99.90;;;;;;5065498;28;20205;-65
2023/12/28 11:34:09;;;;;;;12.33;6.23;;;7.60;99.90;;;;;;5067618;28;20228;-66
2023/12/28 11:36:38;;;;;;;10.47;5.97;;;7.60;99.90;;;;;;5064873;28;20680;-65
2023/12/28 11:39:07;;;;;;;9.57;6.03;;;7.70;99.90;;;;;;5068211;28;20201;-65
2023/12/28 11:41:36;;;;;;;11.37;5.53;;;7.70;99.90;;;;;;5067464;28;20197;-64
2023/12/28 11:44:06;;;;;;;7.03;4.80;;;7.80;99.90;;;;;;5065266;28;20281;-64
2023/12/28 11:46:34;;;;;;;8.80;4.97;;;7.80;99.90;;;;;;5093189;28;20295;-65
2023/12/28 11:49:07;;;;;;;9.73;6.03;;;7.80;99.90;;;;;;5072877;28;20292;-65
2023/12/28 11:51:40;;;;;;;7.37;5.10;;;7.90;99.90;;;;;;5067906;28;20841;-65
2023/12/28 11:54:07;;;;;;;10.47;6.60;;;7.90;99.90;;;;;;5062441;28;20687;-66
2023/12/28 11:56:34;;;;;;;16.63;7.40;;;7.90;99.90;;;;;;5059649;28;20224;-65
2023/12/28 11:59:01;;;;;;;16.77;8.63;;;8.00;99.90;;;;;;5069564;28;20193;-65
2023/12/28 12:01:30;;;;;;;17.60;8.13;;;8.00;99.90;;;;;;5062040;28;20224;-65
2023/12/28 12:03:57;;;;;;;12.97;7.50;;;8.00;99.90;;;;;;5067844;28;20189;-64
2023/12/28 12:06:25;;;;;;;14.63;6.80;;;8.00;99.90;;;;;;5064881;28;20623;-65
2023/12/28 12:08:52;;;;;;;12.93;6.97;;;8.00;99.90;;;;;;5068249;28;20572;-65
2023/12/28 12:11:19;;;;;;;14.20;6.87;;;8.10;99.90;;;;;;5067972;28;20256;-64
2023/12/28 12:13:51;;;;;;;14.70;7.30;;;8.20;99.90;;;;;;5067006;28;20289;-65
2023/12/28 12:16:18;;;;;;;14.40;7.50;;;8.20;99.90;;;;;;5065181;28;20693;-65
2023/12/28 12:18:50;;;;;;;13.20;6.83;;;8.20;99.90;;;;;;5065796;28;20296;-65
2023/12/28 12:21:18;;;;;;;14.77;6.93;;;8.30;99.90;;;;;;5066802;28;20181;-66
2023/12/28 12:23:45;;;;;;;15.57;6.63;;;8.40;99.90;;;;;;5064674;28;20216;-65
2023/12/28 12:26:13;;;;;;;14.33;7.10;;;8.50;99.90;;;;;;5065363;28;21854;-66
2023/12/28 12:28:42;;;;;;;10.77;5.40;;;8.70;99.90;;;;;;5064713;28;20212;-65
2023/12/28 12:31:10;;;;;;;10.00;5.37;;;8.80;99.90;;;;;;5054383;28;20200;-65
2023/12/28 12:33:38;;;;;;;5.37;3.87;;;9.00;99.90;;;;;;5064688;28;20232;-64
2023/12/28 12:36:08;;;;;;;4.67;3.43;;;9.10;99.90;;;;;;5063814;28;20212;-65
2023/12/28 12:38:35;;;;;;;6.73;3.77;;;9.20;99.90;;;;;;5065041;28;20252;-65
2023/12/28 12:41:02;;;;;;;7.20;3.20;;;9.20;99.90;;;;;;5064780;28;20236;-65
2023/12/28 12:43:29;;;;;;;3.50;2.87;;;9.20;99.90;;;;;;5066263;28;20195;-65
2023/12/28 12:45:56;;;;;;;5.23;2.83;;;9.20;99.90;;;;;;5064858;28;20690;-65
2023/12/28 12:48:23;;;;;;;3.47;2.77;;;9.20;99.90;;;;;;5063296;28;20201;-66
2023/12/28 12:50:50;;;;;;;4.63;3.03;;;9.30;99.90;;;;;;5062129;28;20290;-65
2023/12/28 12:53:19;;;;;;;6.10;3.17;;;9.30;99.90;;;;;;5062209;28;20392;-65